Time;durP1;ratioP1;P1;durP2;ratioP2;P2;SDS_P1;SDS_P2;PMS_P1;PMS_P2;Temp;Humidity;BMP_temperature;BMP_pressure;BME280_temperature;BME280_humidity;BME280_pressure;Samples;Min_cycle;Max_cycle;Signal;HPM_P1;HPM_P2
2021/12/23 00:01:39;;;;;;;24.35;13.57;;;3.30;89.70;;;;;;5034638;28;20037;-77
2021/12/23 00:04:05;;;;;;;22.83;14.93;;;3.20;89.50;;;;;;5034104;28;20456;-77
2021/12/23 00:06:31;;;;;;;23.55;13.88;;;3.20;89.30;;;;;;5034605;28;20117;-78
2021/12/23 00:09:00;;;;;;;24.65;14.70;;;3.20;89.40;;;;;;5034650;28;20025;-77
2021/12/23 00:11:27;;;;;;;21.95;14.23;;;3.20;89.50;;;;;;5034151;28;20038;-78
2021/12/23 00:14:05;;;;;;;20.90;13.73;;;3.10;89.40;;;;;;5034783;28;20026;-78
2021/12/23 00:16:55;;;;;;;25.52;14.63;;;3.10;89.50;;;;;;5034385;28;20052;-78
2021/12/23 00:19:58;;;;;;;19.98;13.52;;;3.10;89.60;;;;;;5034505;28;20094;-75
2021/12/23 00:24:51;;;;;;;36.00;14.57;;;3.10;89.90;;;;;;5034142;28;20024;-84
2021/12/23 00:27:17;;;;;;;24.48;15.38;;;3.10;89.90;;;;;;5033383;28;20052;-81
2021/12/23 00:29:43;;;;;;;20.95;13.77;;;3.10;90.20;;;;;;5033324;28;20415;-82
2021/12/23 00:32:09;;;;;;;23.50;14.88;;;3.20;90.50;;;;;;5032897;28;20041;-83
2021/12/23 00:34:36;;;;;;;21.52;13.75;;;3.30;90.30;;;;;;5035040;28;20116;-81
2021/12/23 00:37:03;;;;;;;21.40;13.93;;;3.30;90.40;;;;;;5043527;28;20064;-82
2021/12/23 00:39:30;;;;;;;22.45;13.82;;;3.40;90.10;;;;;;5033189;28;20057;-82
2021/12/23 00:42:05;;;;;;;20.90;13.70;;;3.40;89.80;;;;;;5033686;28;20083;-82
2021/12/23 00:44:31;;;;;;;21.20;13.55;;;3.30;89.70;;;;;;5034192;28;20030;-82
2021/12/23 00:46:56;;;;;;;22.85;14.55;;;3.30;90.30;;;;;;5033496;28;20488;-82
2021/12/23 00:49:22;;;;;;;21.40;13.45;;;3.40;90.40;;;;;;5033913;28;20392;-82
2021/12/23 00:51:47;;;;;;;20.75;13.82;;;3.40;90.50;;;;;;5033373;28;20031;-82
2021/12/23 00:54:14;;;;;;;20.42;13.55;;;3.50;90.30;;;;;;5033490;28;20053;-81
2021/12/23 00:56:40;;;;;;;24.08;13.98;;;3.50;90.30;;;;;;5028610;28;20064;-82
2021/12/23 00:59:08;;;;;;;20.42;13.90;;;3.50;90.00;;;;;;5033603;28;20502;-82
2021/12/23 01:01:36;;;;;;;22.30;13.95;;;3.50;90.00;;;;;;5034030;28;20100;-82
2021/12/23 01:04:02;;;;;;;23.23;14.43;;;3.40;90.10;;;;;;5033465;28;20041;-81
2021/12/23 01:06:27;;;;;;;23.08;13.98;;;3.40;90.00;;;;;;5033205;28;20052;-81
2021/12/23 01:08:53;;;;;;;23.40;14.18;;;3.30;90.10;;;;;;5033870;28;20033;-81
2021/12/23 01:11:21;;;;;;;24.65;14.25;;;3.30;90.10;;;;;;5033372;28;20534;-82
2021/12/23 01:14:00;;;;;;;24.42;14.90;;;3.30;90.10;;;;;;5033416;28;20068;-83
2021/12/23 01:16:47;;;;;;;19.33;13.57;;;3.40;90.40;;;;;;5033550;28;20064;-83
2021/12/23 01:19:13;;;;;;;22.75;14.18;;;3.40;90.20;;;;;;5033075;28;20565;-83
2021/12/23 01:21:38;;;;;;;21.15;13.52;;;3.40;90.10;;;;;;5032986;28;20029;-83
2021/12/23 01:24:04;;;;;;;23.00;13.50;;;3.40;90.10;;;;;;5033080;28;20487;-84
2021/12/23 01:26:30;;;;;;;20.73;14.15;;;3.40;90.00;;;;;;5033047;28;20496;-83
2021/12/23 01:28:58;;;;;;;22.08;13.15;;;3.50;89.80;;;;;;5033613;28;20025;-83
2021/12/23 01:31:29;;;;;;;24.52;14.85;;;3.50;90.00;;;;;;5033409;28;20029;-83
2021/12/23 01:33:55;;;;;;;21.45;14.63;;;3.40;90.00;;;;;;5034795;28;20030;-81
2021/12/23 01:36:22;;;;;;;22.30;14.90;;;3.40;90.00;;;;;;5045576;28;20030;-83
2021/12/23 01:38:48;;;;;;;23.30;15.10;;;3.40;89.70;;;;;;5033445;28;20028;-83
2021/12/23 01:41:14;;;;;;;22.42;14.68;;;3.30;89.80;;;;;;5032698;28;20033;-83
2021/12/23 01:43:40;;;;;;;24.33;14.60;;;3.20;89.70;;;;;;5033194;28;20120;-84
2021/12/23 01:46:06;;;;;;;21.88;14.52;;;3.20;89.60;;;;;;5032839;28;20100;-86
2021/12/23 01:48:32;;;;;;;23.95;14.75;;;3.20;89.40;;;;;;5032658;28;20503;-82
2021/12/23 01:50:58;;;;;;;25.42;15.63;;;3.10;89.30;;;;;;5032670;28;20049;-83
2021/12/23 01:53:23;;;;;;;25.58;15.65;;;3.20;89.80;;;;;;5032895;28;20083;-83
2021/12/23 01:55:49;;;;;;;22.35;14.40;;;3.20;90.10;;;;;;5032600;28;20465;-82
2021/12/23 01:58:15;;;;;;;21.00;14.32;;;3.20;90.10;;;;;;5032829;28;20076;-82
2021/12/23 02:00:44;;;;;;;21.50;14.45;;;3.20;90.10;;;;;;5032393;28;20017;-83
2021/12/23 02:03:11;;;;;;;24.67;15.48;;;3.30;90.10;;;;;;5032438;28;20861;-83
2021/12/23 02:05:36;;;;;;;24.50;15.27;;;3.30;90.00;;;;;;5032725;28;20435;-83
2021/12/23 02:08:03;;;;;;;25.20;15.38;;;3.20;90.10;;;;;;5032888;28;20022;-83
2021/12/23 02:10:29;;;;;;;24.30;15.75;;;3.30;90.00;;;;;;5032089;28;20030;-82
2021/12/23 02:12:55;;;;;;;23.02;14.55;;;3.30;89.60;;;;;;5032695;28;20511;-82
2021/12/23 02:15:21;;;;;;;25.48;14.57;;;3.20;89.10;;;;;;5032084;28;20018;-82
2021/12/23 02:17:48;;;;;;;21.10;14.13;;;3.20;89.40;;;;;;5032658;28;20033;-81
2021/12/23 02:20:18;;;;;;;23.75;14.02;;;3.10;89.40;;;;;;5031947;28;20018;-81
2021/12/23 02:22:44;;;;;;;21.80;14.30;;;3.10;89.60;;;;;;5031314;28;20497;-82
2021/12/23 02:25:11;;;;;;;24.52;15.15;;;3.00;90.00;;;;;;5032429;28;20029;-82
2021/12/23 02:27:37;;;;;;;24.30;14.52;;;3.00;90.20;;;;;;5032220;28;20025;-82
2021/12/23 02:30:06;;;;;;;23.67;15.13;;;3.00;90.20;;;;;;5032386;28;20029;-82
2021/12/23 02:32:35;;;;;;;21.85;14.45;;;3.10;90.10;;;;;;5031810;28;20033;-81
2021/12/23 02:35:01;;;;;;;24.67;16.23;;;3.10;90.40;;;;;;5032432;28;20021;-81
2021/12/23 02:37:26;;;;;;;21.95;15.13;;;3.00;90.20;;;;;;5032469;28;20035;-81
2021/12/23 02:39:52;;;;;;;20.70;14.32;;;3.00;90.40;;;;;;5032153;28;20041;-83
2021/12/23 02:42:18;;;;;;;25.35;15.68;;;3.10;90.40;;;;;;5032301;28;20429;-82
2021/12/23 02:44:43;;;;;;;23.25;14.73;;;3.20;90.30;;;;;;5032488;28;20373;-83
2021/12/23 02:47:09;;;;;;;18.15;12.32;;;3.20;90.60;;;;;;5032366;28;20506;-83
2021/12/23 02:49:34;;;;;;;22.05;14.07;;;3.20;90.20;;;;;;5032473;28;20104;-81
2021/12/23 02:52:00;;;;;;;25.63;14.90;;;3.20;90.30;;;;;;5032445;28;20044;-82
2021/12/23 02:54:26;;;;;;;25.55;15.02;;;3.30;90.20;;;;;;5031233;28;20133;-82
2021/12/23 02:56:52;;;;;;;26.90;15.65;;;3.20;90.20;;;;;;5032029;28;20029;-83
2021/12/23 02:59:17;;;;;;;24.00;14.85;;;3.30;90.30;;;;;;5032474;28;20025;-83
2021/12/23 03:01:43;;;;;;;24.25;14.95;;;3.30;90.30;;;;;;5031947;28;20037;-83
2021/12/23 03:04:08;;;;;;;22.63;14.70;;;3.30;90.40;;;;;;5035582;28;20033;-82
2021/12/23 03:06:34;;;;;;;23.98;14.95;;;3.30;90.40;;;;;;5035132;28;20029;-84
2021/12/23 03:09:03;;;;;;;22.50;14.77;;;3.30;90.40;;;;;;5035875;28;20037;-84
2021/12/23 03:11:30;;;;;;;23.77;14.90;;;3.20;90.30;;;;;;5035643;28;20476;-84
2021/12/23 03:13:57;;;;;;;22.65;14.27;;;3.20;90.30;;;;;;5035484;28;20044;-84
2021/12/23 03:16:27;;;;;;;23.77;15.35;;;3.20;90.40;;;;;;5034871;28;20496;-83
2021/12/23 03:18:53;;;;;;;21.98;14.90;;;3.20;90.40;;;;;;5035606;28;20029;-85
2021/12/23 03:21:18;;;;;;;24.02;14.95;;;3.20;90.30;;;;;;5035399;28;20037;-84
2021/12/23 03:23:44;;;;;;;22.70;15.05;;;3.10;90.30;;;;;;5035686;28;20112;-85
2021/12/23 03:26:10;;;;;;;22.58;14.93;;;3.10;90.80;;;;;;5035463;28;20068;-85
2021/12/23 03:28:36;;;;;;;23.38;15.05;;;3.10;90.50;;;;;;5035286;28;20037;-85
2021/12/23 03:31:02;;;;;;;24.98;15.75;;;3.10;90.40;;;;;;5035429;28;20117;-85
2021/12/23 03:33:28;;;;;;;23.33;14.45;;;3.10;90.40;;;;;;5053652;28;20033;-85
2021/12/23 03:35:54;;;;;;;26.38;15.93;;;3.10;90.50;;;;;;5036670;28;20021;-83
2021/12/23 03:38:21;;;;;;;22.15;14.15;;;3.00;90.50;;;;;;5035535;28;20033;-83
2021/12/23 03:40:49;;;;;;;22.63;14.13;;;3.10;90.40;;;;;;5035282;28;20053;-82
2021/12/23 03:43:16;;;;;;;22.58;14.88;;;3.00;90.30;;;;;;5035155;28;20026;-83
2021/12/23 03:45:43;;;;;;;23.63;15.23;;;3.00;90.40;;;;;;5034740;28;20037;-82
2021/12/23 03:48:13;;;;;;;30.08;16.88;;;2.90;90.50;;;;;;5034883;28;20112;-82
2021/12/23 03:50:39;;;;;;;24.60;15.23;;;2.90;90.60;;;;;;5034777;28;20477;-83
2021/12/23 03:53:05;;;;;;;24.88;14.93;;;2.80;90.70;;;;;;5034564;28;20048;-81
2021/12/23 03:55:31;;;;;;;26.13;15.55;;;2.90;90.70;;;;;;5034776;28;20037;-82
2021/12/23 03:57:57;;;;;;;22.02;15.30;;;2.80;90.70;;;;;;5034345;28;20420;-82
2021/12/23 04:00:24;;;;;;;26.25;16.33;;;2.80;90.60;;;;;;5034037;28;20108;-83
2021/12/23 04:02:52;;;;;;;25.63;16.23;;;2.80;90.50;;;;;;5034465;28;20025;-84
2021/12/23 04:05:18;;;;;;;24.00;15.10;;;2.70;90.90;;;;;;5034470;28;20108;-83
2021/12/23 04:07:44;;;;;;;24.20;15.13;;;2.60;90.90;;;;;;5022193;28;20065;-84
2021/12/23 04:10:13;;;;;;;24.85;16.58;;;2.60;90.80;;;;;;5034751;28;20044;-82
2021/12/23 04:12:42;;;;;;;25.40;15.15;;;2.70;90.80;;;;;;5034339;28;20128;-84
2021/12/23 04:15:08;;;;;;;23.63;15.73;;;2.60;91.00;;;;;;5033478;28;20025;-84
2021/12/23 04:17:34;;;;;;;26.27;16.20;;;2.60;90.90;;;;;;5033978;28;20029;-82
2021/12/23 04:20:13;;;;;;;29.67;17.30;;;2.50;91.10;;;;;;5034474;28;20491;-83
2021/12/23 04:22:39;;;;;;;25.90;16.75;;;2.50;91.30;;;;;;5034042;28;20048;-82
2021/12/23 04:25:05;;;;;;;26.77;16.55;;;2.40;91.40;;;;;;5034384;28;20034;-83
2021/12/23 04:27:31;;;;;;;28.27;16.65;;;2.30;91.50;;;;;;5033806;28;20038;-84
2021/12/23 04:29:57;;;;;;;27.02;17.30;;;2.30;91.70;;;;;;5034233;28;20022;-83
2021/12/23 04:32:22;;;;;;;28.17;17.52;;;2.40;91.90;;;;;;5033816;28;20041;-83
2021/12/23 04:34:48;;;;;;;28.42;16.52;;;2.30;91.50;;;;;;5033998;28;20528;-83
2021/12/23 04:37:13;;;;;;;28.85;17.38;;;2.30;91.50;;;;;;5033707;28;20025;-83
2021/12/23 04:39:40;;;;;;;27.00;16.38;;;2.30;91.70;;;;;;5034392;28;20160;-83
2021/12/23 04:42:05;;;;;;;26.95;16.98;;;2.30;91.70;;;;;;5033794;28;20037;-83
2021/12/23 04:44:31;;;;;;;29.50;17.73;;;2.30;91.80;;;;;;5033918;28;20025;-84
2021/12/23 04:46:57;;;;;;;26.60;17.35;;;2.30;92.00;;;;;;5033762;28;20032;-83
2021/12/23 04:49:23;;;;;;;28.80;17.17;;;2.40;91.90;;;;;;5034125;28;20027;-84
2021/12/23 04:51:49;;;;;;;29.08;16.13;;;2.50;91.70;;;;;;5034089;28;20073;-82
2021/12/23 04:54:14;;;;;;;25.80;16.83;;;2.40;91.50;;;;;;5033521;28;20084;-83
2021/12/23 04:56:40;;;;;;;28.65;16.52;;;2.40;91.70;;;;;;5033199;28;20021;-83
2021/12/23 04:59:06;;;;;;;25.95;16.63;;;2.40;91.80;;;;;;5033846;28;20039;-81
2021/12/23 05:01:32;;;;;;;28.42;16.25;;;2.40;91.80;;;;;;5033086;28;20358;-83
2021/12/23 05:03:58;;;;;;;28.75;17.50;;;2.50;91.90;;;;;;5033105;28;20129;-83
2021/12/23 05:06:24;;;;;;;25.90;16.48;;;2.50;92.00;;;;;;5033382;28;20033;-82
2021/12/23 05:08:50;;;;;;;24.55;16.48;;;2.60;91.90;;;;;;5033063;28;20022;-83
2021/12/23 05:11:16;;;;;;;26.73;17.70;;;2.60;91.90;;;;;;5032723;28;20457;-83
2021/12/23 05:13:42;;;;;;;32.13;18.70;;;2.50;92.00;;;;;;5033330;28;20026;-83
2021/12/23 05:16:08;;;;;;;34.72;19.88;;;2.40;92.20;;;;;;5033682;28;20412;-83
2021/12/23 05:18:33;;;;;;;29.80;18.08;;;2.40;92.10;;;;;;5033064;28;20022;-84
2021/12/23 05:21:02;;;;;;;32.13;19.48;;;2.30;92.30;;;;;;5032752;28;20048;-84
2021/12/23 05:23:28;;;;;;;31.40;19.85;;;2.30;92.30;;;;;;5033022;28;20029;-83
2021/12/23 05:25:54;;;;;;;31.55;19.17;;;2.20;92.30;;;;;;5032562;28;20439;-84
2021/12/23 05:28:19;;;;;;;30.35;19.08;;;2.30;92.30;;;;;;5033278;28;20112;-84
2021/12/23 05:30:45;;;;;;;35.60;21.08;;;2.30;92.20;;;;;;5032904;28;20100;-85
2021/12/23 05:33:11;;;;;;;31.70;19.67;;;2.30;92.10;;;;;;5033346;28;20041;-86
2021/12/23 05:35:36;;;;;;;34.97;19.95;;;2.30;92.00;;;;;;5033237;28;20029;-85
2021/12/23 05:38:02;;;;;;;33.10;19.77;;;2.40;92.10;;;;;;5032688;28;20064;-86
2021/12/23 05:40:29;;;;;;;33.72;21.13;;;2.30;92.10;;;;;;5032454;28;20030;-85
2021/12/23 05:42:56;;;;;;;34.47;21.08;;;2.30;92.00;;;;;;5033163;28;20034;-86
2021/12/23 05:45:21;;;;;;;34.25;20.67;;;2.30;92.00;;;;;;5032800;28;20033;-84
2021/12/23 05:47:48;;;;;;;34.20;21.13;;;2.30;92.00;;;;;;5032779;28;20032;-83
2021/12/23 05:50:17;;;;;;;35.65;22.15;;;2.20;92.10;;;;;;5032286;28;20269;-83
2021/12/23 05:52:43;;;;;;;37.65;21.73;;;2.10;92.30;;;;;;5032865;28;20044;-84
2021/12/23 05:55:10;;;;;;;37.42;21.23;;;2.10;92.30;;;;;;5032810;28;20041;-85
2021/12/23 05:57:36;;;;;;;36.72;21.65;;;2.10;92.30;;;;;;5032278;28;20025;-84
2021/12/23 06:00:09;;;;;;;33.53;20.13;;;2.00;92.40;;;;;;5032748;28;20104;-84
2021/12/23 06:02:34;;;;;;;36.35;20.67;;;2.10;92.40;;;;;;5032540;28;20029;-82
2021/12/23 06:05:00;;;;;;;37.10;23.02;;;2.20;92.20;;;;;;5033007;28;20034;-83
2021/12/23 06:07:26;;;;;;;39.47;22.60;;;2.30;92.20;;;;;;5032697;28;20017;-83
2021/12/23 06:09:51;;;;;;;38.38;22.67;;;2.10;92.00;;;;;;5032430;28;20028;-82
2021/12/23 06:12:17;;;;;;;38.58;23.17;;;2.10;92.20;;;;;;5032249;28;20111;-79
2021/12/23 06:14:43;;;;;;;36.08;21.75;;;2.10;92.50;;;;;;5032281;28;20022;-80
2021/12/23 06:17:08;;;;;;;38.40;22.20;;;2.00;92.40;;;;;;5032292;28;20044;-82
2021/12/23 06:19:34;;;;;;;39.90;21.98;;;2.10;92.40;;;;;;5032836;28;20431;-81
2021/12/23 06:21:59;;;;;;;38.95;23.23;;;2.20;92.30;;;;;;5032170;28;20105;-81
2021/12/23 06:24:25;;;;;;;37.13;21.63;;;2.10;92.30;;;;;;5032354;28;20416;-81
2021/12/23 06:26:51;;;;;;;39.45;23.20;;;2.10;92.10;;;;;;5032426;28;20083;-80
2021/12/23 06:29:16;;;;;;;37.72;22.67;;;2.10;92.10;;;;;;5040583;28;20033;-81
2021/12/23 06:31:42;;;;;;;39.03;22.58;;;2.00;92.40;;;;;;5036500;28;20065;-81
2021/12/23 06:34:08;;;;;;;38.20;22.48;;;2.00;92.40;;;;;;5031752;28;20057;-80
2021/12/23 06:36:33;;;;;;;41.35;23.52;;;2.00;92.30;;;;;;5030144;28;20032;-80
2021/12/23 06:38:59;;;;;;;42.25;24.73;;;1.90;92.40;;;;;;5034020;28;20034;-79
2021/12/23 06:41:25;;;;;;;41.47;24.00;;;2.00;92.50;;;;;;5034151;28;20079;-80
2021/12/23 06:43:50;;;;;;;38.70;23.63;;;2.00;92.40;;;;;;5034300;28;20091;-82
2021/12/23 06:46:16;;;;;;;40.60;24.27;;;1.90;92.40;;;;;;5036291;28;20037;-80
2021/12/23 06:48:41;;;;;;;39.65;22.98;;;1.90;92.60;;;;;;5035980;28;20061;-80
2021/12/23 06:51:07;;;;;;;41.38;24.58;;;1.90;92.60;;;;;;5035903;28;20075;-81
2021/12/23 06:53:33;;;;;;;39.70;23.05;;;2.00;92.70;;;;;;5035704;28;20049;-81
2021/12/23 06:56:00;;;;;;;36.72;21.98;;;2.00;92.70;;;;;;5034709;28;20021;-81
2021/12/23 06:58:31;;;;;;;39.25;22.83;;;2.00;92.50;;;;;;5035956;28;20040;-79
2021/12/23 07:00:57;;;;;;;43.60;25.27;;;1.90;92.40;;;;;;5034940;28;20041;-83
2021/12/23 07:03:30;;;;;;;48.55;25.33;;;1.90;92.50;;;;;;5035280;28;20025;-83
2021/12/23 07:06:04;;;;;;;;;;;1.90;92.70;;;;;;5036403;28;20120;-84
2021/12/23 07:08:30;;;;;;;42.38;23.63;;;1.90;92.80;;;;;;5035245;28;19951;-83
2021/12/23 07:10:56;;;;;;;43.75;24.60;;;2.00;92.80;;;;;;5035978;28;20025;-81
2021/12/23 07:13:22;;;;;;;47.38;24.92;;;2.00;92.70;;;;;;5035286;28;20393;-82
2021/12/23 07:15:48;;;;;;;45.83;25.38;;;2.00;92.80;;;;;;5031639;28;20104;-80
2021/12/23 07:18:14;;;;;;;44.80;24.40;;;2.00;92.90;;;;;;5035767;28;20030;-80
2021/12/23 07:20:39;;;;;;;43.58;23.45;;;2.00;92.80;;;;;;5035924;28;20022;-80
2021/12/23 07:23:05;;;;;;;40.95;22.92;;;2.00;92.80;;;;;;5036097;28;20357;-79
2021/12/23 07:25:31;;;;;;;39.60;23.10;;;2.00;92.70;;;;;;5035756;28;20021;-79
2021/12/23 07:27:56;;;;;;;39.90;22.85;;;2.00;92.70;;;;;;5037701;28;20021;-79
2021/12/23 07:30:22;;;;;;;38.50;22.00;;;2.10;92.70;;;;;;5042014;28;20028;-78
2021/12/23 07:32:49;;;;;;;38.35;22.42;;;2.10;92.70;;;;;;5034439;28;20046;-78
2021/12/23 07:35:16;;;;;;;42.00;23.58;;;2.00;92.60;;;;;;5033912;28;20026;-81
2021/12/23 07:37:43;;;;;;;44.40;23.05;;;2.10;92.70;;;;;;5033963;28;20033;-81
2021/12/23 07:40:16;;;;;;;41.15;23.08;;;2.10;92.80;;;;;;5034363;28;20071;-82
2021/12/23 07:42:53;;;;;;;;;;;2.10;92.70;;;;;;5034518;28;20045;-80
2021/12/23 07:45:21;;;;;;;41.03;23.30;;;2.10;92.80;;;;;;5033160;28;19913;-85
2021/12/23 07:47:46;;;;;;;40.03;23.02;;;2.10;92.80;;;;;;5033647;28;20032;-83
2021/12/23 07:50:12;;;;;;;38.78;22.52;;;2.10;92.90;;;;;;5034776;28;20029;-84
2021/12/23 07:52:38;;;;;;;42.83;23.73;;;2.10;92.90;;;;;;5033804;28;20084;-81
2021/12/23 07:55:04;;;;;;;40.15;22.77;;;2.20;93.00;;;;;;5034240;28;20485;-81
2021/12/23 07:57:29;;;;;;;46.40;23.92;;;2.20;92.90;;;;;;5033598;28;20083;-80
2021/12/23 07:59:58;;;;;;;42.70;23.00;;;2.20;92.80;;;;;;5033493;28;20021;-84
2021/12/23 08:02:24;;;;;;;35.22;20.52;;;2.20;92.80;;;;;;5033334;28;20568;-83
2021/12/23 08:04:49;;;;;;;39.92;23.15;;;2.20;92.90;;;;;;5033358;28;20104;-83
2021/12/23 08:07:15;;;;;;;43.00;23.52;;;2.30;93.20;;;;;;5032926;28;20029;-79
2021/12/23 08:09:41;;;;;;;36.78;21.83;;;2.30;93.20;;;;;;5033371;28;20105;-77
2021/12/23 08:12:08;;;;;;;38.72;22.65;;;2.40;93.30;;;;;;5033782;28;20030;-75
2021/12/23 08:14:34;;;;;;;39.58;22.73;;;2.40;93.30;;;;;;5035104;28;20033;-78
2021/12/23 08:16:59;;;;;;;37.70;22.60;;;2.50;93.40;;;;;;5034917;28;20068;-79
2021/12/23 08:19:25;;;;;;;37.53;22.00;;;2.60;93.20;;;;;;5034951;28;20026;-77
2021/12/23 08:21:51;;;;;;;35.83;20.83;;;2.70;93.20;;;;;;5035100;28;20026;-78
2021/12/23 08:24:16;;;;;;;32.80;19.58;;;2.80;93.10;;;;;;5035441;28;20021;-77
2021/12/23 08:26:50;;;;;;;38.45;21.85;;;2.90;93.20;;;;;;5042648;28;20025;-79
2021/12/23 08:29:18;;;;;;;36.20;22.65;;;3.00;93.10;;;;;;5042640;28;20057;-80
2021/12/23 08:31:46;;;;;;;41.10;23.15;;;3.10;92.70;;;;;;5034761;28;20092;-79
2021/12/23 08:34:11;;;;;;;40.40;23.00;;;3.10;92.40;;;;;;5034853;28;20036;-78
2021/12/23 08:36:38;;;;;;;40.63;23.98;;;3.10;92.10;;;;;;5034514;28;20030;-78
2021/12/23 08:39:04;;;;;;;38.83;22.92;;;3.10;92.20;;;;;;5033846;28;20037;-77
2021/12/23 08:41:30;;;;;;;35.45;21.48;;;3.10;92.10;;;;;;5034346;28;20030;-77
2021/12/23 08:43:55;;;;;;;34.83;20.17;;;3.00;91.90;;;;;;5034559;28;20053;-77
2021/12/23 08:46:22;;;;;;;39.05;21.70;;;3.10;92.00;;;;;;5034650;28;20051;-78
2021/12/23 08:48:47;;;;;;;38.72;22.55;;;3.10;92.10;;;;;;5034115;28;20029;-77
2021/12/23 08:51:13;;;;;;;44.17;24.98;;;3.10;92.10;;;;;;5034093;28;20025;-77
2021/12/23 08:53:39;;;;;;;41.13;24.55;;;3.20;92.20;;;;;;5033847;28;20100;-77
2021/12/23 08:56:08;;;;;;;40.38;22.58;;;3.30;92.00;;;;;;5034450;28;20030;-77
2021/12/23 08:58:34;;;;;;;37.83;22.55;;;3.30;91.80;;;;;;5034181;28;20029;-78
2021/12/23 09:01:00;;;;;;;37.03;21.50;;;3.30;91.80;;;;;;5033118;28;20021;-78
2021/12/23 09:03:26;;;;;;;39.55;22.15;;;3.30;91.50;;;;;;5034200;28;20032;-77
2021/12/23 09:05:52;;;;;;;35.47;22.17;;;3.30;91.40;;;;;;5033813;28;20047;-78
2021/12/23 09:08:17;;;;;;;40.80;22.52;;;3.40;91.40;;;;;;5034015;28;20021;-78
2021/12/23 09:10:43;;;;;;;38.42;23.10;;;3.30;91.10;;;;;;5033787;28;20504;-83
2021/12/23 09:13:09;;;;;;;41.00;21.33;;;3.30;91.30;;;;;;5033805;28;20056;-82
2021/12/23 09:15:34;;;;;;;37.88;22.15;;;3.40;91.40;;;;;;5033572;28;20026;-76
2021/12/23 09:18:00;;;;;;;36.70;22.33;;;3.40;91.30;;;;;;5033431;28;20064;-76
2021/12/23 09:20:26;;;;;;;40.45;22.65;;;3.40;91.40;;;;;;5033998;28;20026;-77
2021/12/23 09:22:52;;;;;;;42.45;24.55;;;3.40;91.30;;;;;;5033407;28;20045;-76
2021/12/23 09:25:24;;;;;;;36.22;22.27;;;3.30;91.20;;;;;;5034286;28;20029;-76
2021/12/23 09:28:09;;;;;;;41.20;23.92;;;3.30;91.40;;;;;;5033847;28;20076;-76
2021/12/23 09:33:20;;;;;;;37.35;22.42;;;3.20;91.70;;;;;;5033350;28;20048;-79
2021/12/23 09:35:46;;;;;;;43.10;23.50;;;3.30;92.30;;;;;;5033408;28;20017;-79
2021/12/23 09:38:13;;;;;;;36.60;22.50;;;3.40;92.20;;;;;;5032638;28;20036;-79
2021/12/23 09:40:40;;;;;;;41.42;24.20;;;3.40;91.90;;;;;;5033563;28;20057;-79
2021/12/23 09:43:08;;;;;;;40.33;22.73;;;3.40;91.90;;;;;;5033870;28;20025;-78
2021/12/23 09:45:39;;;;;;;40.17;23.10;;;3.40;91.90;;;;;;5033101;28;20530;-79
2021/12/23 09:48:06;;;;;;;39.67;23.15;;;3.40;91.60;;;;;;5033498;28;20026;-80
2021/12/23 09:50:36;;;;;;;39.88;22.52;;;3.40;91.90;;;;;;5018515;28;20029;-77
2021/12/23 09:53:04;;;;;;;41.45;22.77;;;3.50;92.10;;;;;;5017279;28;20432;-74
2021/12/23 09:55:31;;;;;;;41.72;23.45;;;3.60;91.90;;;;;;5030817;28;20030;-76
2021/12/23 09:57:58;;;;;;;40.97;22.95;;;3.60;91.60;;;;;;5031851;28;20037;-76
2021/12/23 10:00:30;;;;;;;39.90;22.42;;;3.60;91.70;;;;;;5031249;28;20103;-76
2021/12/23 10:02:56;;;;;;;39.30;23.27;;;3.70;91.70;;;;;;5026760;28;20026;-76
2021/12/23 10:05:25;;;;;;;42.20;24.42;;;3.80;91.60;;;;;;5031157;28;20072;-76
2021/12/23 10:07:51;;;;;;;42.10;24.27;;;3.70;91.50;;;;;;5030788;28;20484;-76
2021/12/23 10:10:24;;;;;;;44.55;23.40;;;3.60;91.70;;;;;;5031704;28;20022;-76
2021/12/23 10:37:23;;;;;;;39.67;23.38;;;3.80;92.30;;;;;;5035453;28;20361;-77
2021/12/23 10:40:03;;;;;;;45.83;25.08;;;3.70;92.00;;;;;;5035603;28;20490;-77
2021/12/23 10:42:30;;;;;;;42.83;23.60;;;3.70;92.30;;;;;;5035130;28;20389;-77
2021/12/23 10:45:10;;;;;;;39.90;23.90;;;3.70;92.20;;;;;;5035140;28;20052;-76
2021/12/23 10:47:56;;;;;;;42.03;24.38;;;3.80;92.20;;;;;;5035158;28;20120;-77
2021/12/23 10:50:24;;;;;;;42.60;24.70;;;3.80;92.30;;;;;;5034348;28;20103;-76
2021/12/23 10:52:53;;;;;;;45.38;25.60;;;3.80;92.50;;;;;;5034689;28;20037;-76
2021/12/23 11:00:34;;;;;;;41.70;23.83;;;3.70;92.40;;;;;;5034496;28;20047;-78
2021/12/23 11:03:20;;;;;;;40.40;23.23;;;3.80;92.60;;;;;;5016340;28;20083;-80
2021/12/23 11:37:07;;;;;;;42.67;22.55;;;3.80;93.00;;;;;;5030472;28;20095;-77
2021/12/23 11:39:48;;;;;;;53.45;25.33;;;3.80;93.10;;;;;;5033392;28;20037;-79
2021/12/23 11:42:24;;;;;;;47.22;25.83;;;3.80;93.40;;;;;;5033868;28;20029;-79
2021/12/23 11:44:50;;;;;;;42.70;23.83;;;3.80;93.70;;;;;;5034256;28;20029;-81
2021/12/23 11:47:16;;;;;;;43.45;24.75;;;3.80;93.70;;;;;;5034019;28;20025;-83
2021/12/23 11:49:45;;;;;;;42.78;24.50;;;3.80;93.80;;;;;;5034248;28;20063;-82
2021/12/23 11:52:11;;;;;;;39.88;23.33;;;3.90;93.70;;;;;;5029931;28;20090;-83
2021/12/23 11:54:39;;;;;;;39.95;23.45;;;3.90;93.70;;;;;;5033026;28;20124;-76
2021/12/23 11:57:27;;;;;;;43.78;23.85;;;3.90;93.80;;;;;;5034894;28;20037;-77
2021/12/23 12:02:34;;;;;;;44.83;24.25;;;3.90;93.70;;;;;;5033995;28;20036;-77
2021/12/23 12:05:05;;;;;;;46.00;24.45;;;3.90;93.70;;;;;;5034969;28;20025;-77
2021/12/23 12:07:31;;;;;;;43.00;23.70;;;3.90;93.80;;;;;;5035422;28;20100;-82
2021/12/23 12:10:08;;;;;;;41.15;24.77;;;3.90;93.90;;;;;;5035300;28;20543;-78
2021/12/23 12:12:54;;;;;;;44.05;23.17;;;3.90;93.90;;;;;;5034777;28;20548;-77
2021/12/23 12:15:41;;;;;;;46.28;25.40;;;4.00;94.00;;;;;;5034938;28;20025;-76
2021/12/23 12:18:09;;;;;;;45.22;23.33;;;4.10;93.90;;;;;;5034878;28;20513;-80
2021/12/23 12:20:46;;;;;;;43.78;23.92;;;4.10;93.90;;;;;;5034674;28;20029;-76
2021/12/23 12:23:36;;;;;;;42.55;23.25;;;4.10;94.10;;;;;;5035069;28;20097;-78
2021/12/23 12:26:12;;;;;;;42.40;23.63;;;4.20;94.20;;;;;;5034497;28;20021;-80
2021/12/23 12:28:43;;;;;;;39.22;23.45;;;4.20;94.10;;;;;;5034299;28;20056;-79
2021/12/23 12:31:26;;;;;;;43.40;23.83;;;4.30;93.90;;;;;;5034483;28;20029;-78
2021/12/23 12:34:06;;;;;;;43.97;23.55;;;4.30;94.00;;;;;;5033987;28;20041;-78
2021/12/23 12:36:39;;;;;;;44.10;23.35;;;4.30;94.10;;;;;;5033957;28;20017;-78
2021/12/23 12:39:08;;;;;;;41.70;22.75;;;4.30;94.20;;;;;;5034465;28;20550;-79
2021/12/23 12:41:39;;;;;;;45.58;24.90;;;4.30;94.10;;;;;;5034107;28;20029;-78
2021/12/23 12:44:22;;;;;;;39.38;22.38;;;4.40;94.10;;;;;;5034423;28;20384;-79
2021/12/23 12:46:57;;;;;;;44.63;23.47;;;4.40;94.10;;;;;;5033381;28;20025;-79
2021/12/23 12:49:47;;;;;;;39.28;21.75;;;4.50;94.10;;;;;;5030582;28;20098;-78
2021/12/23 12:52:21;;;;;;;47.05;23.92;;;4.60;94.00;;;;;;5032242;28;20025;-78
2021/12/23 12:54:57;;;;;;;42.03;22.60;;;4.60;93.90;;;;;;5032820;28;20049;-78
2021/12/23 12:57:32;;;;;;;42.08;23.67;;;4.70;93.80;;;;;;5032611;28;20029;-78
2021/12/23 13:00:15;;;;;;;42.78;23.10;;;4.80;93.80;;;;;;5032614;28;20120;-79
2021/12/23 13:02:40;;;;;;;41.72;23.20;;;4.80;93.50;;;;;;5033926;28;20100;-77
2021/12/23 13:05:09;;;;;;;40.95;23.58;;;4.80;93.60;;;;;;5033754;28;20112;-78
2021/12/23 13:07:37;;;;;;;39.83;23.30;;;4.80;93.60;;;;;;5033804;28;20481;-78
2021/12/23 13:10:14;;;;;;;43.10;24.45;;;4.80;93.70;;;;;;5034072;28;20056;-78
2021/12/23 13:12:49;;;;;;;38.88;22.38;;;4.80;93.70;;;;;;5033214;28;20120;-78
2021/12/23 13:15:28;;;;;;;43.30;23.98;;;4.80;93.90;;;;;;5033317;28;20396;-78
2021/12/23 13:18:00;;;;;;;46.30;24.23;;;4.80;93.80;;;;;;5033887;28;20459;-78
2021/12/23 13:20:35;;;;;;;43.10;22.48;;;4.80;93.90;;;;;;5033516;28;20100;-78
2021/12/23 13:23:11;;;;;;;41.30;22.25;;;4.80;94.00;;;;;;5033787;28;20025;-76
2021/12/23 13:25:55;;;;;;;39.05;22.05;;;4.80;94.00;;;;;;5033517;28;20025;-76
2021/12/23 13:28:22;;;;;;;;;;;4.80;94.10;;;;;;5033887;28;20480;-76
2021/12/23 13:30:48;;;;;;;41.90;22.50;;;4.80;94.10;;;;;;5033718;28;19932;-77
2021/12/23 13:33:13;;;;;;;42.20;22.48;;;4.80;94.10;;;;;;5033387;28;20049;-84
2021/12/23 13:35:39;;;;;;;45.15;23.55;;;4.80;94.20;;;;;;5033599;28;20068;-84
2021/12/23 13:38:05;;;;;;;44.75;24.70;;;4.80;94.20;;;;;;5033052;28;20029;-88
2021/12/23 13:40:34;;;;;;;45.88;24.50;;;4.80;94.30;;;;;;5031703;28;20100;-78
2021/12/23 13:43:01;;;;;;;42.05;23.40;;;4.80;94.30;;;;;;5033026;28;20033;-78
2021/12/23 13:45:28;;;;;;;39.63;23.50;;;4.80;94.50;;;;;;5032262;28;20366;-77
2021/12/23 13:47:56;;;;;;;43.08;22.40;;;4.90;94.60;;;;;;5029038;28;20052;-77
2021/12/23 13:50:24;;;;;;;45.53;23.77;;;4.90;94.60;;;;;;5033296;28;20048;-77
2021/12/23 13:52:51;;;;;;;42.25;22.45;;;4.90;94.60;;;;;;5033331;28;20067;-78